createdAt,value
2023-03-11T00:00:13.166Z,94.32
2023-03-11T00:02:39.578Z,93.54
2023-03-11T00:05:05.946Z,93.00
2023-03-11T00:07:32.361Z,92.21
2023-03-11T00:09:58.680Z,92.27
2023-03-11T00:12:24.976Z,92.54
2023-03-11T00:14:51.309Z,94.31
2023-03-11T00:17:17.622Z,94.90
2023-03-11T00:19:43.938Z,95.78
2023-03-11T00:22:10.254Z,95.86
2023-03-11T00:24:36.562Z,97.16
2023-03-11T00:27:03.124Z,98.83
2023-03-11T00:29:29.420Z,97.66
2023-03-11T00:31:55.755Z,98.61
2023-03-11T00:34:22.101Z,98.58
2023-03-11T00:36:48.417Z,100.00
2023-03-11T00:39:15.190Z,100.00
2023-03-11T00:41:41.514Z,100.00
2023-03-11T00:44:07.861Z,100.00
2023-03-11T00:46:34.334Z,100.00
2023-03-11T00:49:00.681Z,100.00
2023-03-11T00:51:26.980Z,100.00
2023-03-11T00:53:53.324Z,100.00
2023-03-11T00:56:19.639Z,100.00
2023-03-11T00:58:46.103Z,100.00
2023-03-11T01:01:12.450Z,100.00
2023-03-11T01:03:38.797Z,100.00
2023-03-11T01:06:05.454Z,100.00
2023-03-11T01:08:31.773Z,100.00
2023-03-11T01:10:58.105Z,100.00
2023-03-11T01:13:24.417Z,100.00
2023-03-11T01:15:50.749Z,100.00
2023-03-11T01:18:17.129Z,100.00
2023-03-11T01:20:43.446Z,100.00
2023-03-11T01:23:09.758Z,100.00
2023-03-11T01:25:36.070Z,100.00
2023-03-11T01:28:02.386Z,100.00
2023-03-11T01:30:28.705Z,100.00
2023-03-11T01:32:55.038Z,100.00
2023-03-11T01:35:21.380Z,100.00
2023-03-11T01:37:47.784Z,100.00
2023-03-11T01:40:14.135Z,100.00
2023-03-11T01:42:40.495Z,100.00
2023-03-11T01:45:06.793Z,98.17
2023-03-11T01:47:33.115Z,99.53
2023-03-11T01:49:59.422Z,97.73
2023-03-11T01:52:25.739Z,97.50
2023-03-11T01:54:52.117Z,97.70
2023-03-11T01:57:18.576Z,97.95
2023-03-11T01:59:44.931Z,97.45
2023-03-11T02:02:11.327Z,97.00
2023-03-11T02:04:37.818Z,97.67
2023-03-11T02:07:04.227Z,97.47
2023-03-11T02:09:30.535Z,97.37
2023-03-11T02:11:56.890Z,97.01
2023-03-11T02:14:23.214Z,96.80
2023-03-11T02:16:49.542Z,95.70
2023-03-11T02:19:15.869Z,96.04
2023-03-11T02:21:42.389Z,96.36
2023-03-11T02:24:08.735Z,96.38
2023-03-11T02:26:35.107Z,96.94
2023-03-11T02:29:01.427Z,96.64
2023-03-11T02:31:27.872Z,96.01
2023-03-11T02:33:54.228Z,96.19
2023-03-11T02:36:20.548Z,95.91
2023-03-11T02:38:47.573Z,96.55
2023-03-11T02:41:13.898Z,96.91
2023-03-11T02:43:40.273Z,97.87
2023-03-11T02:46:06.610Z,97.02
2023-03-11T02:48:32.913Z,96.76
2023-03-11T02:50:59.234Z,96.59
2023-03-11T02:53:25.573Z,96.41
2023-03-11T02:55:51.894Z,96.20
2023-03-11T02:58:18.196Z,95.73
2023-03-11T03:00:44.532Z,95.59
2023-03-11T03:03:10.896Z,96.26
2023-03-11T03:05:37.212Z,97.28
2023-03-11T03:08:03.607Z,98.01
2023-03-11T03:10:30.069Z,98.84
2023-03-11T03:12:56.390Z,99.52
2023-03-11T03:15:22.701Z,100.00
2023-03-11T03:17:51.551Z,100.00
2023-03-11T03:20:18.244Z,100.00
2023-03-11T03:22:44.561Z,100.00
2023-03-11T03:25:10.874Z,100.00
2023-03-11T03:27:37.215Z,100.00
2023-03-11T03:30:03.574Z,100.00
2023-03-11T03:32:30.005Z,100.00
2023-03-11T03:34:59.150Z,100.00
2023-03-11T03:37:25.479Z,100.00
2023-03-11T03:39:51.842Z,100.00
2023-03-11T03:42:18.148Z,100.00
2023-03-11T03:44:44.467Z,100.00
2023-03-11T03:47:11.987Z,100.00
2023-03-11T03:49:38.320Z,100.00
2023-03-11T03:52:04.625Z,100.00
2023-03-11T03:54:30.987Z,100.00
2023-03-11T03:56:57.313Z,100.00
2023-03-11T03:59:23.632Z,100.00
2023-03-11T04:01:50.041Z,100.00
2023-03-11T04:04:16.370Z,100.00
2023-03-11T04:06:42.693Z,100.00
2023-03-11T04:09:09.018Z,100.00
2023-03-11T04:11:35.339Z,100.00
2023-03-11T04:14:02.656Z,100.00
2023-03-11T04:16:29.054Z,100.00
2023-03-11T04:18:55.443Z,100.00
2023-03-11T04:21:21.773Z,100.00
2023-03-11T04:23:48.092Z,100.00
2023-03-11T04:26:14.402Z,100.00
2023-03-11T04:28:40.709Z,100.00
2023-03-11T04:31:07.060Z,100.00
2023-03-11T04:33:33.394Z,100.00
2023-03-11T04:35:59.747Z,100.00
2023-03-11T04:38:26.135Z,100.00
2023-03-11T04:40:52.758Z,100.00
2023-03-11T04:43:19.058Z,100.00
2023-03-11T04:45:45.357Z,100.00
2023-03-11T04:48:11.662Z,100.00
2023-03-11T04:50:38.004Z,100.00
2023-03-11T04:53:04.341Z,100.00
2023-03-11T04:55:30.716Z,100.00
2023-03-11T04:57:57.021Z,100.00
2023-03-11T05:00:25.192Z,100.00
2023-03-11T05:02:51.662Z,100.00
2023-03-11T05:05:19.552Z,100.00
2023-03-11T05:07:45.864Z,100.00
2023-03-11T05:10:12.177Z,100.00
2023-03-11T05:12:38.527Z,100.00
2023-03-11T05:15:04.924Z,100.00
2023-03-11T05:17:31.260Z,100.00
2023-03-11T05:19:57.706Z,100.00
2023-03-11T05:22:24.017Z,100.00
2023-03-11T05:24:50.385Z,100.00
2023-03-11T05:27:18.168Z,100.00
2023-03-11T05:29:45.138Z,100.00
2023-03-11T05:32:11.739Z,100.00
2023-03-11T05:34:38.122Z,100.00
2023-03-11T05:37:04.444Z,100.00
2023-03-11T05:39:30.763Z,100.00
2023-03-11T05:41:57.083Z,100.00
2023-03-11T05:44:23.423Z,100.00
2023-03-11T05:46:49.795Z,100.00
2023-03-11T05:49:16.186Z,100.00
2023-03-11T05:51:42.533Z,100.00
2023-03-11T05:54:15.251Z,99.73
2023-03-11T05:56:41.672Z,100.00
2023-03-11T05:59:08.024Z,99.70
2023-03-11T06:01:34.435Z,99.98
2023-03-11T06:04:00.811Z,99.83
2023-03-11T06:06:27.346Z,99.37
2023-03-11T06:08:53.675Z,98.88
2023-03-11T06:11:20.202Z,98.98
2023-03-11T06:13:46.559Z,99.67
2023-03-11T06:16:12.931Z,97.80
2023-03-11T06:18:39.287Z,97.60
2023-03-11T06:21:05.604Z,97.15
2023-03-11T06:23:32.101Z,98.41
2023-03-11T06:25:58.435Z,97.22
2023-03-11T06:28:24.750Z,97.34
2023-03-11T06:30:51.083Z,97.32
2023-03-11T06:33:17.413Z,96.57
2023-03-11T06:35:43.783Z,96.81
2023-03-11T06:38:10.145Z,96.32
2023-03-11T06:40:36.454Z,96.25
2023-03-11T06:43:02.814Z,96.49
2023-03-11T06:45:29.229Z,95.91
2023-03-11T06:47:55.565Z,95.84
2023-03-11T06:50:23.841Z,95.74
2023-03-11T06:52:50.180Z,94.93
2023-03-11T06:55:16.508Z,95.16
2023-03-11T06:57:44.801Z,95.34
2023-03-11T07:00:12.610Z,95.55
2023-03-11T07:02:38.933Z,95.89
2023-03-11T07:05:05.697Z,95.72
2023-03-11T07:07:32.031Z,95.16
2023-03-11T07:09:58.424Z,95.65
2023-03-11T07:12:25.517Z,94.79
2023-03-11T07:14:51.890Z,94.97
2023-03-11T07:17:18.226Z,94.70
2023-03-11T07:19:44.584Z,94.58
2023-03-11T07:22:10.934Z,94.54
2023-03-11T07:24:37.288Z,94.41
2023-03-11T07:27:03.633Z,95.14
2023-03-11T07:29:29.970Z,95.59
2023-03-11T07:31:56.288Z,95.75
2023-03-11T07:34:22.626Z,95.93
2023-03-11T07:36:49.007Z,96.24
2023-03-11T07:39:15.518Z,96.76
2023-03-11T07:41:41.887Z,97.22
2023-03-11T07:44:09.926Z,97.14
2023-03-11T07:46:36.320Z,96.75
2023-03-11T07:49:03.824Z,97.20
2023-03-11T07:51:30.184Z,96.90
2023-03-11T07:53:56.505Z,96.63
2023-03-11T07:56:23.762Z,97.39
2023-03-11T07:58:50.080Z,97.04
2023-03-11T08:01:16.461Z,95.14
2023-03-11T08:03:42.822Z,96.68
2023-03-11T08:06:09.134Z,94.91
2023-03-11T08:08:35.449Z,95.61
2023-03-11T08:11:01.754Z,95.37
2023-03-11T08:13:28.178Z,94.38
2023-03-11T08:15:54.565Z,94.05
2023-03-11T08:18:20.910Z,95.26
2023-03-11T08:20:47.235Z,94.05
2023-03-11T08:23:13.675Z,94.35
2023-03-11T08:25:40.049Z,95.13
2023-03-11T08:28:07.742Z,93.81
2023-03-11T08:30:34.066Z,93.62
2023-03-11T08:33:00.366Z,94.79
2023-03-11T08:35:27.093Z,92.17
2023-03-11T08:37:53.627Z,94.24
2023-03-11T08:40:19.945Z,94.03
2023-03-11T08:42:46.266Z,94.04
2023-03-11T08:45:12.800Z,93.95
2023-03-11T08:47:39.275Z,94.96
2023-03-11T08:50:05.582Z,95.88
2023-03-11T08:52:31.956Z,96.21
2023-03-11T08:54:58.255Z,96.30
2023-03-11T08:57:24.640Z,95.96
2023-03-11T08:59:50.969Z,96.29
2023-03-11T09:02:17.505Z,95.81
2023-03-11T09:04:43.873Z,95.06
2023-03-11T09:07:10.186Z,94.13
2023-03-11T09:09:36.496Z,94.10
2023-03-11T09:12:02.799Z,95.00
2023-03-11T09:14:29.105Z,95.30
2023-03-11T09:16:55.421Z,95.02
2023-03-11T09:19:21.732Z,94.61
2023-03-11T09:21:48.033Z,95.31
2023-03-11T09:24:14.347Z,95.78
2023-03-11T09:26:40.686Z,97.55
2023-03-11T09:29:07.016Z,97.89
2023-03-11T09:31:33.393Z,99.25
2023-03-11T09:33:59.859Z,99.42
2023-03-11T09:36:26.295Z,99.87
2023-03-11T09:38:52.646Z,100.00
2023-03-11T09:41:19.129Z,99.68
2023-03-11T09:43:45.602Z,99.55
2023-03-11T09:46:11.961Z,99.46
2023-03-11T09:48:38.422Z,99.53
2023-03-11T09:51:08.362Z,99.78
2023-03-11T09:53:34.719Z,99.88
2023-03-11T09:56:01.322Z,100.00
2023-03-11T09:58:27.814Z,99.61
2023-03-11T10:00:54.481Z,99.30
2023-03-11T10:03:39.945Z,98.34
2023-03-11T10:06:06.314Z,97.64
2023-03-11T10:08:32.684Z,94.91
2023-03-11T10:10:59.067Z,95.29
2023-03-11T10:13:25.461Z,95.00
2023-03-11T10:15:51.831Z,94.35
2023-03-11T10:18:18.317Z,95.40
2023-03-11T10:20:44.656Z,95.33
2023-03-11T10:23:11.098Z,95.13
2023-03-11T10:25:37.427Z,93.97
2023-03-11T10:28:03.825Z,94.40
2023-03-11T10:30:30.169Z,92.99
2023-03-11T10:32:56.576Z,92.41
2023-03-11T10:35:22.999Z,92.98
2023-03-11T10:37:50.218Z,90.97
2023-03-11T10:40:16.652Z,90.69
2023-03-11T10:42:42.988Z,89.69
2023-03-11T10:45:09.289Z,89.32
2023-03-11T10:47:35.630Z,89.22
2023-03-11T10:50:01.938Z,88.35
2023-03-11T10:52:28.272Z,89.11
2023-03-11T10:54:54.579Z,88.60
2023-03-11T10:57:20.920Z,88.12
2023-03-11T10:59:47.317Z,86.53
2023-03-11T11:02:13.638Z,85.62
2023-03-11T11:04:39.994Z,84.81
2023-03-11T11:07:07.434Z,86.27
2023-03-11T11:09:33.792Z,86.00
2023-03-11T11:12:00.537Z,86.64
2023-03-11T11:14:26.906Z,85.80
2023-03-11T11:16:53.285Z,86.27
2023-03-11T11:19:22.626Z,87.38
2023-03-11T11:21:48.939Z,89.04
2023-03-11T11:24:16.691Z,89.25
2023-03-11T11:26:43.214Z,90.13
2023-03-11T11:29:09.570Z,91.08
2023-03-11T11:31:35.934Z,91.58
2023-03-11T11:34:02.299Z,89.44
2023-03-11T11:36:28.605Z,87.69
2023-03-11T11:38:54.979Z,88.16
2023-03-11T11:41:21.356Z,86.23
2023-03-11T11:43:47.759Z,86.45
2023-03-11T11:46:14.097Z,86.32
2023-03-11T11:48:41.368Z,87.19
2023-03-11T11:51:08.983Z,85.89
2023-03-11T11:53:35.286Z,87.33
2023-03-11T11:56:01.641Z,83.36
2023-03-11T11:58:28.632Z,83.10
2023-03-11T12:00:54.949Z,82.34
2023-03-11T12:03:21.330Z,83.43
2023-03-11T12:05:47.730Z,81.13
2023-03-11T12:08:14.096Z,80.02
2023-03-11T12:10:40.401Z,82.62
2023-03-11T12:13:06.709Z,81.86
2023-03-11T12:15:33.077Z,79.69
2023-03-11T12:17:59.402Z,79.97
2023-03-11T12:20:28.125Z,78.25
2023-03-11T12:22:54.569Z,77.88
2023-03-11T12:25:22.399Z,77.86
2023-03-11T12:27:50.113Z,78.79
2023-03-11T12:30:16.459Z,77.98
2023-03-11T12:32:42.917Z,79.34
2023-03-11T12:35:10.904Z,82.10
2023-03-11T12:37:37.226Z,80.25
2023-03-11T12:40:04.604Z,80.40
2023-03-11T12:42:30.937Z,77.81
2023-03-11T12:44:57.292Z,77.77
2023-03-11T12:47:23.699Z,77.29
2023-03-11T12:49:50.092Z,77.09
2023-03-11T12:52:16.406Z,76.46
2023-03-11T12:54:42.753Z,78.45
2023-03-11T12:57:09.064Z,78.35
2023-03-11T12:59:35.390Z,80.46
2023-03-11T13:02:01.775Z,81.72
2023-03-11T13:04:32.217Z,83.25
2023-03-11T13:06:58.544Z,83.30
2023-03-11T13:09:24.858Z,84.68
2023-03-11T13:11:51.484Z,84.67
2023-03-11T13:14:17.913Z,85.95
2023-03-11T13:16:44.258Z,88.38
2023-03-11T13:19:10.591Z,88.74
2023-03-11T13:21:36.902Z,87.43
2023-03-11T13:24:03.231Z,86.42
2023-03-11T13:26:30.411Z,85.75
2023-03-11T13:28:56.738Z,85.17
2023-03-11T13:31:23.183Z,84.66
2023-03-11T13:33:49.556Z,84.66
2023-03-11T13:36:15.891Z,84.12
2023-03-11T13:38:42.218Z,83.17
2023-03-11T13:41:08.538Z,83.41
2023-03-11T13:43:34.866Z,82.99
2023-03-11T13:46:01.222Z,81.76
2023-03-11T13:48:28.325Z,80.71
2023-03-11T13:50:54.692Z,80.12
2023-03-11T13:53:21.058Z,81.75
2023-03-11T13:55:47.417Z,80.91
2023-03-11T13:58:13.762Z,80.45
2023-03-11T14:00:40.165Z,80.49
2023-03-11T14:03:06.631Z,80.60
2023-03-11T14:05:32.957Z,81.64
2023-03-11T14:07:59.287Z,80.61
2023-03-11T14:10:25.668Z,78.91
2023-03-11T14:12:52.081Z,79.46
2023-03-11T14:15:18.455Z,77.87
2023-03-11T14:17:47.029Z,79.21
2023-03-11T14:20:18.008Z,79.01
2023-03-11T14:22:44.368Z,76.93
2023-03-11T14:25:10.695Z,76.32
2023-03-11T14:27:38.034Z,75.18
2023-03-11T14:30:04.366Z,74.52
2023-03-11T14:32:30.940Z,74.89
2023-03-11T14:34:57.280Z,74.04
2023-03-11T14:37:23.592Z,72.47
2023-03-11T14:39:53.412Z,74.35
2023-03-11T14:42:20.415Z,73.21
2023-03-11T14:44:46.840Z,74.83
2023-03-11T14:47:13.212Z,74.58
2023-03-11T14:49:39.620Z,74.49
2023-03-11T14:52:05.931Z,74.14
2023-03-11T14:54:32.241Z,74.68
2023-03-11T14:56:58.556Z,74.09
2023-03-11T14:59:26.905Z,73.54
2023-03-11T15:01:53.324Z,74.60
2023-03-11T15:04:22.893Z,75.25
2023-03-11T15:06:53.177Z,75.69
2023-03-11T15:09:19.546Z,75.91
2023-03-11T15:11:45.917Z,75.38
2023-03-11T15:14:12.249Z,74.69
2023-03-11T15:16:38.631Z,75.01
2023-03-11T15:19:04.982Z,73.94
2023-03-11T15:21:31.352Z,73.36
2023-03-11T15:23:57.702Z,73.74
2023-03-11T15:26:24.047Z,73.65
2023-03-11T15:28:50.377Z,73.13
2023-03-11T15:31:21.164Z,73.22
2023-03-11T15:33:47.491Z,72.90
2023-03-11T15:36:13.814Z,72.99
2023-03-11T15:38:40.292Z,71.12
2023-03-11T15:41:06.625Z,71.24
2023-03-11T15:43:32.955Z,70.55
2023-03-11T15:45:59.329Z,69.44
2023-03-11T15:48:27.892Z,70.32
2023-03-11T15:50:54.994Z,70.13
2023-03-11T15:53:21.573Z,70.54
2023-03-11T15:55:47.914Z,70.21
2023-03-11T15:58:14.297Z,70.79
2023-03-11T16:00:40.624Z,71.55
2023-03-11T16:03:07.062Z,71.66
2023-03-11T16:05:33.399Z,71.88
2023-03-11T16:07:59.705Z,71.88
2023-03-11T16:10:28.829Z,70.92
2023-03-11T16:12:55.233Z,70.41
2023-03-11T16:15:24.772Z,71.22
2023-03-11T16:17:51.355Z,71.74
2023-03-11T16:20:17.679Z,71.54
2023-03-11T16:22:44.028Z,72.64
2023-03-11T16:25:10.341Z,71.23
2023-03-11T16:27:36.769Z,71.25
2023-03-11T16:30:03.848Z,71.06
2023-03-11T16:32:30.298Z,70.34
2023-03-11T16:34:56.666Z,71.06
2023-03-11T16:37:23.020Z,71.50
2023-03-11T16:39:49.404Z,72.18
2023-03-11T16:42:15.713Z,71.93
2023-03-11T16:44:42.024Z,72.83
2023-03-11T16:47:08.334Z,74.01
2023-03-11T16:49:34.678Z,73.09
2023-03-11T16:52:01.121Z,72.99
2023-03-11T16:54:27.460Z,73.30
2023-03-11T16:56:53.767Z,73.37
2023-03-11T16:59:20.071Z,73.20
2023-03-11T17:01:46.422Z,74.93
2023-03-11T17:04:12.745Z,73.78
2023-03-11T17:06:40.300Z,74.43
2023-03-11T17:09:06.597Z,74.88
2023-03-11T17:11:34.459Z,75.60
2023-03-11T17:14:15.529Z,74.28
2023-03-11T17:16:42.790Z,75.38
2023-03-11T17:19:09.140Z,76.37
2023-03-11T17:21:35.479Z,76.26
2023-03-11T17:24:01.782Z,76.25
2023-03-11T17:26:30.878Z,75.92
2023-03-11T17:28:57.212Z,77.30
2023-03-11T17:31:23.545Z,77.13
2023-03-11T17:33:50.793Z,77.54
2023-03-11T17:36:17.237Z,77.64
2023-03-11T17:38:43.562Z,77.73
2023-03-11T17:41:09.876Z,77.23
2023-03-11T17:43:36.224Z,78.39
2023-03-11T17:46:02.603Z,78.10
2023-03-11T17:48:28.926Z,77.97
2023-03-11T17:50:55.251Z,78.19
2023-03-11T17:53:21.571Z,78.86
2023-03-11T17:55:47.885Z,78.98
2023-03-11T17:58:14.194Z,78.29
2023-03-11T18:00:40.524Z,79.19
2023-03-11T18:03:06.864Z,78.86
2023-03-11T18:05:33.240Z,77.97
2023-03-11T18:07:59.551Z,77.50
2023-03-11T18:10:25.907Z,77.27
2023-03-11T18:12:52.269Z,77.38
2023-03-11T18:15:19.591Z,77.50
2023-03-11T18:17:46.242Z,77.25
2023-03-11T18:20:13.674Z,77.67
2023-03-11T18:22:44.456Z,77.42
2023-03-11T18:25:13.970Z,77.91
2023-03-11T18:27:40.315Z,77.75
2023-03-11T18:30:06.758Z,77.87
2023-03-11T18:32:33.096Z,78.55
2023-03-11T18:34:59.450Z,78.98
2023-03-11T18:37:25.824Z,78.73
2023-03-11T18:39:52.267Z,79.62
2023-03-11T18:42:18.657Z,78.54
2023-03-11T18:44:44.986Z,79.65
2023-03-11T18:47:11.396Z,79.58
2023-03-11T18:49:37.705Z,79.41
2023-03-11T18:52:04.021Z,79.52
2023-03-11T18:54:30.368Z,80.13
2023-03-11T18:56:56.705Z,80.16
2023-03-11T18:59:23.058Z,79.60
2023-03-11T19:01:49.385Z,80.07
2023-03-11T19:04:15.803Z,80.60
2023-03-11T19:06:42.155Z,81.18
2023-03-11T19:09:08.465Z,81.07
2023-03-11T19:11:34.798Z,81.57
2023-03-11T19:14:01.158Z,81.64
2023-03-11T19:16:27.854Z,81.51
2023-03-11T19:18:55.223Z,81.42
2023-03-11T19:21:21.554Z,82.52
2023-03-11T19:23:50.043Z,82.11
2023-03-11T19:26:16.371Z,82.23
2023-03-11T19:28:42.801Z,82.58
2023-03-11T19:31:09.197Z,83.26
2023-03-11T19:33:35.568Z,83.09
2023-03-11T19:36:02.036Z,83.38
2023-03-11T19:38:28.437Z,83.56
2023-03-11T19:40:54.835Z,83.82
2023-03-11T19:43:21.173Z,83.86
2023-03-11T19:45:47.545Z,85.26
2023-03-11T19:48:13.898Z,84.40
2023-03-11T19:50:40.248Z,84.98
2023-03-11T19:53:06.591Z,86.38
2023-03-11T19:55:32.919Z,86.27
2023-03-11T19:57:59.264Z,88.34
2023-03-11T20:00:26.248Z,88.70
2023-03-11T20:02:52.678Z,88.44
2023-03-11T20:05:19.041Z,88.10
2023-03-11T20:07:45.343Z,87.99
2023-03-11T20:10:11.724Z,88.40
2023-03-11T20:12:38.104Z,89.28
2023-03-11T20:15:04.510Z,88.18
2023-03-11T20:17:30.972Z,88.01
2023-03-11T20:19:57.350Z,88.96
2023-03-11T20:22:23.800Z,88.13
2023-03-11T20:24:50.155Z,87.72
2023-03-11T20:27:16.547Z,87.08
2023-03-11T20:29:42.909Z,86.61
2023-03-11T20:32:09.295Z,86.43
2023-03-11T20:34:35.612Z,86.39
2023-03-11T20:37:01.969Z,86.99
2023-03-11T20:39:28.306Z,86.18
2023-03-11T20:41:54.754Z,86.29
2023-03-11T20:44:21.188Z,85.53
2023-03-11T20:46:49.571Z,85.25
2023-03-11T20:49:16.121Z,86.22
2023-03-11T20:51:44.018Z,86.58
2023-03-11T20:54:12.107Z,87.15
2023-03-11T20:56:38.494Z,87.09
2023-03-11T20:59:07.092Z,87.63
2023-03-11T21:01:33.983Z,88.14
2023-03-11T21:04:00.779Z,88.31
2023-03-11T21:06:27.493Z,88.33
2023-03-11T21:08:53.919Z,88.31
2023-03-11T21:11:20.281Z,89.24
2023-03-11T21:13:46.759Z,88.84
2023-03-11T21:16:13.261Z,87.98
2023-03-11T21:18:39.792Z,88.69
2023-03-11T21:21:08.533Z,89.32
2023-03-11T21:23:35.888Z,89.17
2023-03-11T21:26:02.360Z,89.30
2023-03-11T21:28:28.947Z,89.77
2023-03-11T21:30:55.336Z,91.06
2023-03-11T21:33:21.796Z,90.10
2023-03-11T21:35:48.282Z,90.01
2023-03-11T21:38:15.881Z,89.17
2023-03-11T21:40:42.294Z,90.40
2023-03-11T21:43:08.768Z,90.60
2023-03-11T21:45:35.636Z,91.63
2023-03-11T21:48:06.678Z,91.75
2023-03-11T21:50:33.124Z,92.65
2023-03-11T21:52:59.498Z,92.71
2023-03-11T21:55:26.075Z,91.44
2023-03-11T21:57:52.555Z,91.49
2023-03-11T22:00:18.945Z,91.77
2023-03-11T22:02:45.381Z,91.54
2023-03-11T22:05:12.322Z,92.06
2023-03-11T22:07:38.768Z,92.38
2023-03-11T22:10:05.100Z,94.37
2023-03-11T22:12:31.581Z,93.43
2023-03-11T22:14:58.010Z,92.85
2023-03-11T22:17:24.420Z,94.72
2023-03-11T22:19:50.843Z,94.50
2023-03-11T22:22:17.193Z,93.51
2023-03-11T22:24:43.513Z,92.82
2023-03-11T22:27:09.822Z,92.55
2023-03-11T22:29:36.149Z,92.28
2023-03-11T22:32:02.507Z,92.47
2023-03-11T22:34:28.855Z,92.40
2023-03-11T22:36:55.186Z,92.22
2023-03-11T22:39:21.530Z,92.49
2023-03-11T22:41:47.834Z,93.16
2023-03-11T22:44:14.167Z,93.71
2023-03-11T22:46:40.487Z,93.88
2023-03-11T22:49:06.846Z,94.10
2023-03-11T22:51:33.246Z,94.57
2023-03-11T22:53:59.568Z,94.49
2023-03-11T22:56:26.374Z,93.06
2023-03-11T22:58:52.752Z,93.20
2023-03-11T23:01:19.057Z,93.00
2023-03-11T23:03:45.547Z,93.21
2023-03-11T23:06:11.918Z,93.94
2023-03-11T23:08:38.252Z,94.72
2023-03-11T23:11:04.568Z,95.14
2023-03-11T23:13:30.933Z,94.53
2023-03-11T23:15:57.253Z,94.10
2023-03-11T23:18:23.573Z,94.63
2023-03-11T23:20:49.910Z,95.98
2023-03-11T23:23:16.217Z,95.55
2023-03-11T23:25:42.644Z,96.26
2023-03-11T23:28:08.986Z,96.24
2023-03-11T23:30:35.383Z,96.42
2023-03-11T23:33:03.141Z,96.62
2023-03-11T23:35:29.616Z,95.94
2023-03-11T23:37:55.940Z,96.12
2023-03-11T23:40:22.274Z,95.54
2023-03-11T23:42:48.587Z,94.97
2023-03-11T23:45:14.898Z,95.54
2023-03-11T23:47:41.210Z,94.98
2023-03-11T23:50:07.534Z,96.03
2023-03-11T23:52:34.017Z,96.82
2023-03-11T23:55:00.332Z,96.58
2023-03-11T23:57:26.636Z,95.76
2023-03-11T23:59:52.968Z,95.14
